createdAt,value
2023-02-22T00:01:07.751Z,-2.80
2023-02-22T00:03:35.427Z,-2.80
2023-02-22T00:06:05.426Z,-2.70
2023-02-22T00:08:35.950Z,-2.70
2023-02-22T00:11:11.529Z,-2.60
2023-02-22T00:13:39.332Z,-2.80
2023-02-22T00:16:07.594Z,-2.80
2023-02-22T00:18:35.094Z,-2.90
2023-02-22T00:21:02.890Z,-2.80
2023-02-22T00:23:32.131Z,-2.70
2023-02-22T00:26:00.739Z,-2.70
2023-02-22T00:28:28.453Z,-2.80
2023-02-22T00:30:55.929Z,-2.70
2023-02-22T00:33:23.699Z,-2.70
2023-02-22T00:35:51.071Z,-2.70
2023-02-22T00:38:19.431Z,-2.70
2023-02-22T00:40:46.721Z,-2.70
2023-02-22T00:43:14.844Z,-2.80
2023-02-22T00:45:42.602Z,-2.90
2023-02-22T00:48:11.807Z,-2.90
2023-02-22T00:50:39.132Z,-2.90
2023-02-22T00:53:07.811Z,-2.90
2023-02-22T00:55:37.020Z,-2.90
2023-02-22T00:58:05.333Z,-2.80
2023-02-22T01:00:37.327Z,-2.90
2023-02-22T01:03:06.799Z,-3.00
2023-02-22T01:05:34.632Z,-2.90
2023-02-22T01:08:03.780Z,-3.00
2023-02-22T01:10:31.911Z,-3.10
2023-02-22T01:13:00.760Z,-3.10
2023-02-22T01:15:30.971Z,-3.00
2023-02-22T01:17:59.953Z,-3.00
2023-02-22T01:20:29.447Z,-3.10
2023-02-22T01:22:59.220Z,-2.90
2023-02-22T01:25:29.901Z,-2.90
2023-02-22T01:27:59.031Z,-2.90
2023-02-22T01:30:29.752Z,-3.10
2023-02-22T01:32:58.163Z,-3.10
2023-02-22T01:35:29.014Z,-3.00
2023-02-22T01:37:58.369Z,-3.00
2023-02-22T01:40:31.995Z,-3.00
2023-02-22T01:43:02.205Z,-3.00
2023-02-22T01:45:32.974Z,-2.90
2023-02-22T01:48:24.963Z,-3.00
2023-02-22T01:51:11.140Z,-3.00
2023-02-22T01:54:08.184Z,-3.00
2023-02-22T01:56:38.999Z,-3.10
2023-02-22T01:59:10.728Z,-3.10
2023-02-22T02:01:43.037Z,-3.20
2023-02-22T02:04:17.940Z,-3.20
2023-02-22T02:06:47.025Z,-3.10
2023-02-22T02:09:36.038Z,-3.20
2023-02-22T02:12:06.637Z,-3.20
2023-02-22T02:14:34.321Z,-3.30
2023-02-22T02:17:02.104Z,-3.30
2023-02-22T02:20:11.769Z,-3.30
2023-02-22T02:23:02.277Z,-3.30
2023-02-22T02:26:07.092Z,-3.20
2023-02-22T02:28:49.116Z,-3.10
2023-02-22T02:31:53.844Z,-3.10
2023-02-22T02:34:45.787Z,-3.20
2023-02-22T02:37:34.316Z,-3.40
2023-02-22T02:40:24.891Z,-3.50
2023-02-22T02:43:23.435Z,-3.50
2023-02-22T02:46:20.835Z,-3.50
2023-02-22T02:48:57.012Z,-3.50
2023-02-22T02:51:31.204Z,-3.50
2023-02-22T02:54:00.256Z,-3.40
2023-02-22T02:56:28.477Z,-3.30
2023-02-22T02:58:55.918Z,-3.30
2023-02-22T03:01:41.505Z,-3.30
2023-02-22T03:04:41.206Z,-3.20
2023-02-22T03:07:30.541Z,-3.10
2023-02-22T03:10:03.829Z,-3.10
2023-02-22T03:12:52.266Z,-3.00
2023-02-22T03:15:34.256Z,-2.90
2023-02-22T03:18:23.099Z,-2.90
2023-02-22T03:21:01.975Z,-3.00
2023-02-22T03:23:39.430Z,-2.90
2023-02-22T03:26:24.861Z,-2.90
2023-02-22T03:28:54.408Z,-3.10
2023-02-22T03:31:29.623Z,-3.30
2023-02-22T03:34:09.001Z,-3.40
2023-02-22T03:36:42.821Z,-3.30
2023-02-22T03:39:16.199Z,-3.20
2023-02-22T03:41:54.179Z,-3.40
2023-02-22T03:44:25.393Z,-3.40
2023-02-22T03:46:56.934Z,-3.40
2023-02-22T03:49:42.925Z,-3.30
2023-02-22T03:52:10.261Z,-3.30
2023-02-22T03:54:37.570Z,-3.40
2023-02-22T03:57:17.889Z,-3.40
2023-02-22T03:59:45.962Z,-3.20
2023-02-22T04:02:13.180Z,-3.10
2023-02-22T04:04:40.647Z,-3.30
2023-02-22T04:07:08.061Z,-3.20
2023-02-22T04:09:35.445Z,-3.10
2023-02-22T04:12:02.785Z,-3.10
2023-02-22T04:14:30.011Z,-3.10
2023-02-22T04:16:57.125Z,-3.10
2023-02-22T04:19:24.534Z,-3.10
2023-02-22T04:21:51.780Z,-3.10
2023-02-22T04:24:18.872Z,-3.20
2023-02-22T04:26:46.102Z,-3.20
2023-02-22T04:29:13.246Z,-3.30
2023-02-22T04:31:40.440Z,-3.30
2023-02-22T04:34:07.910Z,-3.30
2023-02-22T04:36:35.607Z,-3.40
2023-02-22T04:39:03.065Z,-3.30
2023-02-22T04:41:31.820Z,-3.40
2023-02-22T04:43:59.296Z,-3.30
2023-02-22T04:46:26.942Z,-3.30
2023-02-22T04:48:55.148Z,-3.30
2023-02-22T04:51:22.638Z,-3.30
2023-02-22T04:53:50.247Z,-3.20
2023-02-22T04:56:18.859Z,-3.30
2023-02-22T04:58:46.247Z,-3.30
2023-02-22T05:01:15.623Z,-3.30
2023-02-22T05:03:44.267Z,-3.30
2023-02-22T05:06:15.040Z,-3.40
2023-02-22T05:08:43.029Z,-3.50
2023-02-22T05:11:10.516Z,-3.40
2023-02-22T05:13:37.922Z,-3.30
2023-02-22T05:16:05.725Z,-3.20
2023-02-22T05:18:33.243Z,-3.20
2023-02-22T05:21:00.765Z,-3.20
2023-02-22T05:23:28.149Z,-3.30
2023-02-22T05:25:55.617Z,-3.40
2023-02-22T05:28:23.007Z,-3.30
2023-02-22T05:30:50.661Z,-3.40
2023-02-22T05:33:18.116Z,-3.40
2023-02-22T05:35:46.395Z,-3.30
2023-02-22T05:38:15.407Z,-3.30
2023-02-22T05:40:43.800Z,-3.40
2023-02-22T05:43:11.381Z,-3.40
2023-02-22T05:45:38.899Z,-3.30
2023-02-22T05:48:06.720Z,-3.30
2023-02-22T05:50:34.659Z,-3.40
2023-02-22T05:53:02.851Z,-3.20
2023-02-22T05:55:30.276Z,-3.10
2023-02-22T05:57:58.114Z,-3.20
2023-02-22T06:00:29.287Z,-3.20
2023-02-22T06:03:15.060Z,-3.10
2023-02-22T06:05:42.773Z,-3.20
2023-02-22T06:08:10.750Z,-3.30
2023-02-22T06:10:38.195Z,-3.20
2023-02-22T06:13:06.894Z,-3.30
2023-02-22T06:15:34.378Z,-3.20
2023-02-22T06:18:02.224Z,-3.20
2023-02-22T06:20:30.877Z,-3.40
2023-02-22T06:22:59.830Z,-3.40
2023-02-22T06:25:31.775Z,-3.20
2023-02-22T06:28:00.903Z,-3.10
2023-02-22T06:30:28.964Z,-3.30
2023-02-22T06:32:56.642Z,-3.30
2023-02-22T06:35:23.875Z,-3.30
2023-02-22T06:37:51.622Z,-3.20
2023-02-22T06:40:18.964Z,-3.20
2023-02-22T06:42:49.118Z,-3.00
2023-02-22T06:45:18.161Z,-2.90
2023-02-22T06:47:46.067Z,-2.80
2023-02-22T06:50:29.031Z,-2.80
2023-02-22T06:52:57.183Z,-2.80
2023-02-22T06:55:30.351Z,-2.80
2023-02-22T06:57:57.744Z,-2.90
2023-02-22T07:00:26.785Z,-2.90
2023-02-22T07:02:55.067Z,-3.10
2023-02-22T07:05:24.371Z,-3.00
2023-02-22T07:07:54.316Z,-2.70
2023-02-22T07:10:30.217Z,-2.70
2023-02-22T07:12:57.738Z,-2.70
2023-02-22T07:15:28.178Z,-2.30
2023-02-22T07:17:56.039Z,-2.20
2023-02-22T07:20:25.037Z,-1.90
2023-02-22T07:22:52.658Z,-1.80
2023-02-22T07:25:20.867Z,-1.80
2023-02-22T07:27:48.651Z,-1.80
2023-02-22T07:30:26.119Z,-1.80
2023-02-22T07:32:55.537Z,-1.60
2023-02-22T07:35:26.569Z,-1.70
2023-02-22T07:37:55.988Z,-1.50
2023-02-22T07:40:24.803Z,-1.70
2023-02-22T07:43:04.041Z,-1.90
2023-02-22T07:45:34.095Z,-1.80
2023-02-22T07:48:04.025Z,-1.60
2023-02-22T07:50:32.934Z,-1.40
2023-02-22T07:53:02.560Z,-1.20
2023-02-22T07:55:31.807Z,-1.30
2023-02-22T07:58:01.795Z,-0.90
2023-02-22T08:00:32.274Z,-0.60
2023-02-22T08:03:01.853Z,-0.70
2023-02-22T08:05:30.621Z,-0.10
2023-02-22T08:07:58.179Z,0.40
2023-02-22T08:10:26.536Z,0.50
2023-02-22T08:12:54.272Z,0.30
2023-02-22T08:15:30.924Z,0.10
2023-02-22T08:17:59.568Z,-0.10
2023-02-22T08:20:27.351Z,0.00
2023-02-22T08:22:55.035Z,-0.20
2023-02-22T08:25:25.489Z,-0.50
2023-02-22T08:27:58.769Z,-0.50
2023-02-22T08:30:26.267Z,-0.80
2023-02-22T08:32:54.035Z,-0.70
2023-02-22T08:35:22.619Z,-0.80
2023-02-22T08:37:55.779Z,-0.70
2023-02-22T08:40:26.108Z,-0.50
2023-02-22T08:42:53.408Z,-0.70
2023-02-22T08:45:20.805Z,-1.00
2023-02-22T08:47:48.236Z,-0.80
2023-02-22T08:50:22.225Z,-0.50
2023-02-22T08:52:59.456Z,-0.30
2023-02-22T08:55:32.734Z,-0.40
2023-02-22T08:58:03.233Z,-0.20
2023-02-22T09:00:33.530Z,0.00
2023-02-22T09:03:02.675Z,-0.10
2023-02-22T09:05:31.596Z,0.30
2023-02-22T09:07:59.232Z,0.90
2023-02-22T09:10:31.434Z,0.90
2023-02-22T09:13:01.474Z,1.10
2023-02-22T09:15:30.371Z,0.20
2023-02-22T09:17:57.920Z,0.20
2023-02-22T09:20:26.350Z,0.20
2023-02-22T09:22:54.848Z,0.20
2023-02-22T09:25:23.301Z,-0.10
2023-02-22T09:27:52.684Z,-0.40
2023-02-22T09:30:33.983Z,-0.50
2023-02-22T09:33:04.720Z,-0.10
2023-02-22T09:35:36.547Z,0.10
2023-02-22T09:38:09.319Z,-0.10
2023-02-22T09:40:45.301Z,0.00
2023-02-22T09:43:21.948Z,0.40
2023-02-22T09:46:21.064Z,-0.10
2023-02-22T09:49:00.351Z,0.30
2023-02-22T09:51:54.039Z,-0.60
2023-02-22T09:54:44.200Z,-0.20
2023-02-22T09:57:18.122Z,0.70
2023-02-22T10:00:02.088Z,0.80
2023-02-22T10:02:35.919Z,0.80
2023-02-22T10:05:07.246Z,0.30
2023-02-22T10:07:44.969Z,0.30
2023-02-22T10:10:21.650Z,0.50
2023-02-22T10:13:46.891Z,0.90
2023-02-22T10:16:33.775Z,0.50
2023-02-22T10:19:22.806Z,0.80
2023-02-22T10:21:59.496Z,0.10
2023-02-22T10:24:39.868Z,0.10
2023-02-22T10:27:14.861Z,-0.10
2023-02-22T10:29:49.494Z,-0.40
2023-02-22T10:32:25.871Z,-0.80
2023-02-22T10:34:55.943Z,-0.60
2023-02-22T10:37:33.297Z,-0.40
2023-02-22T10:40:18.315Z,-0.70
2023-02-22T10:42:45.774Z,-0.70
2023-02-22T10:45:32.797Z,-0.90
2023-02-22T10:48:08.716Z,-1.70
2023-02-22T10:50:41.083Z,-1.70
2023-02-22T10:53:09.918Z,-1.60
2023-02-22T10:55:57.869Z,-1.50
2023-02-22T10:58:25.468Z,-1.50
2023-02-22T11:00:52.936Z,-1.50
2023-02-22T11:03:24.158Z,-1.90
2023-02-22T11:05:52.795Z,-1.80
2023-02-22T11:08:29.297Z,-1.60
2023-02-22T11:11:01.350Z,-1.50
2023-02-22T11:13:39.037Z,-1.40
2023-02-22T11:16:28.450Z,-1.50
2023-02-22T11:19:20.851Z,-1.20
2023-02-22T11:21:51.735Z,-0.80
2023-02-22T11:24:24.478Z,-0.90
2023-02-22T11:26:56.656Z,-0.90
2023-02-22T11:29:33.957Z,-0.60
2023-02-22T11:32:21.402Z,-0.30
2023-02-22T11:35:03.420Z,-0.20
2023-02-22T11:37:33.464Z,-0.10
2023-02-22T11:40:06.554Z,-0.30
2023-02-22T11:42:33.912Z,0.10
2023-02-22T11:45:27.784Z,0.30
2023-02-22T11:47:59.145Z,0.10
2023-02-22T11:50:35.312Z,0.20
2023-02-22T11:53:22.721Z,0.40
2023-02-22T11:56:14.102Z,0.30
2023-02-22T11:59:17.870Z,0.30
2023-02-22T12:02:01.679Z,-0.20
2023-02-22T12:04:44.342Z,-0.30
2023-02-22T12:07:39.888Z,0.00
2023-02-22T12:10:13.602Z,0.60
2023-02-22T12:13:12.006Z,0.30
2023-02-22T12:16:11.036Z,0.60
2023-02-22T12:18:56.237Z,0.50
2023-02-22T12:21:26.240Z,0.90
2023-02-22T12:24:08.905Z,0.90
2023-02-22T12:26:47.329Z,0.70
2023-02-22T12:29:18.226Z,1.10
2023-02-22T12:31:52.194Z,0.80
2023-02-22T12:34:32.015Z,1.10
2023-02-22T12:37:04.183Z,1.10
2023-02-22T12:39:58.348Z,0.70
2023-02-22T12:42:48.526Z,0.50
2023-02-22T12:45:34.955Z,0.50
2023-02-22T12:48:02.527Z,0.30
2023-02-22T12:50:34.715Z,-0.10
2023-02-22T12:53:23.473Z,-0.10
2023-02-22T12:56:16.244Z,0.00
2023-02-22T12:58:54.295Z,-0.10
2023-02-22T13:01:27.776Z,-0.20
2023-02-22T13:03:56.172Z,0.10
2023-02-22T13:06:49.343Z,0.50
2023-02-22T13:09:55.410Z,-0.30
2023-02-22T13:12:31.151Z,-0.20
2023-02-22T13:15:23.916Z,-0.30
2023-02-22T13:18:07.486Z,-0.30
2023-02-22T13:20:46.310Z,-0.20
2023-02-22T13:23:35.976Z,0.00
2023-02-22T13:26:35.026Z,0.30
2023-02-22T13:29:08.886Z,0.20
2023-02-22T13:32:12.054Z,0.30
2023-02-22T13:34:58.109Z,0.50
2023-02-22T13:37:58.720Z,0.30
2023-02-22T13:40:38.438Z,0.20
2023-02-22T13:43:23.106Z,-0.10
2023-02-22T13:46:05.090Z,-0.10
2023-02-22T13:48:53.440Z,-0.60
2023-02-22T13:51:33.221Z,-0.70
2023-02-22T13:54:24.749Z,-0.70
2023-02-22T13:56:54.271Z,-0.90
2023-02-22T13:59:36.178Z,-0.70
2023-02-22T14:02:05.701Z,-1.00
2023-02-22T14:04:34.750Z,-0.80
2023-02-22T14:07:10.956Z,-0.40
2023-02-22T14:09:54.238Z,-0.30
2023-02-22T14:12:30.686Z,-0.10
2023-02-22T14:15:28.710Z,-0.10
2023-02-22T14:18:05.463Z,-0.30
2023-02-22T14:20:36.028Z,-0.30
2023-02-22T14:23:36.945Z,-0.70
2023-02-22T14:26:36.008Z,-0.70
2023-02-22T14:29:23.915Z,-0.70
2023-02-22T14:31:51.433Z,-0.70
2023-02-22T14:35:05.192Z,-0.70
2023-02-22T14:37:39.460Z,-0.80
2023-02-22T14:40:21.724Z,-0.80
2023-02-22T14:42:51.465Z,-0.90
2023-02-22T14:45:29.445Z,-0.80
2023-02-22T14:48:07.905Z,-0.90
2023-02-22T14:50:49.044Z,-1.00
2023-02-22T14:53:27.858Z,-1.10
2023-02-22T14:56:23.839Z,-1.00
2023-02-22T14:59:00.213Z,-1.00
2023-02-22T15:01:46.392Z,-1.10
2023-02-22T15:04:28.532Z,-1.10
2023-02-22T15:06:57.846Z,-1.10
2023-02-22T15:09:33.044Z,-1.30
2023-02-22T15:12:05.197Z,-1.30
2023-02-22T15:14:47.992Z,-1.40
2023-02-22T15:17:22.404Z,-1.50
2023-02-22T15:19:50.747Z,-1.40
2023-02-22T15:22:24.639Z,-1.40
2023-02-22T15:25:02.665Z,-1.60
2023-02-22T15:27:30.557Z,-1.60
2023-02-22T15:30:05.021Z,-1.60
2023-02-22T15:32:49.926Z,-1.80
2023-02-22T15:35:29.600Z,-1.90
2023-02-22T15:38:06.702Z,-1.90
2023-02-22T15:40:35.401Z,-2.00
2023-02-22T15:43:08.859Z,-2.00
2023-02-22T15:45:43.328Z,-2.00
2023-02-22T15:48:12.418Z,-2.10
2023-02-22T15:50:39.703Z,-2.00
2023-02-22T15:53:28.944Z,-2.10
2023-02-22T15:56:02.732Z,-2.10
2023-02-22T15:58:30.421Z,-2.00
2023-02-22T16:01:02.504Z,-2.10
2023-02-22T16:03:44.979Z,-2.10
2023-02-22T16:06:23.830Z,-2.10
2023-02-22T16:08:55.503Z,-2.20
2023-02-22T16:11:40.821Z,-2.20
2023-02-22T16:14:24.361Z,-2.10
2023-02-22T16:17:35.831Z,-2.00
2023-02-22T16:20:25.250Z,-2.00
2023-02-22T16:22:57.838Z,-1.90
2023-02-22T16:25:32.997Z,-1.90
2023-02-22T16:28:06.443Z,-2.00
2023-02-22T16:30:40.067Z,-2.20
2023-02-22T16:33:13.991Z,-2.10
2023-02-22T16:35:52.029Z,-2.10
2023-02-22T16:38:21.610Z,-2.00
2023-02-22T16:40:58.176Z,-2.00
2023-02-22T16:43:30.816Z,-2.00
2023-02-22T16:45:58.788Z,-1.90
2023-02-22T16:48:30.131Z,-2.00
2023-02-22T16:51:02.415Z,-1.90
2023-02-22T16:53:32.677Z,-2.00
2023-02-22T16:56:04.977Z,-2.10
2023-02-22T16:58:36.473Z,-2.10
2023-02-22T17:01:04.076Z,-2.00
2023-02-22T17:03:31.387Z,-2.10
2023-02-22T17:05:58.899Z,-2.10
2023-02-22T17:08:26.374Z,-2.10
2023-02-22T17:10:56.935Z,-2.20
2023-02-22T17:13:28.348Z,-2.30
2023-02-22T17:15:56.795Z,-2.20
2023-02-22T17:18:28.616Z,-2.20
2023-02-22T17:20:56.995Z,-2.10
2023-02-22T17:23:24.968Z,-2.30
2023-02-22T17:25:59.482Z,-2.20
2023-02-22T17:28:27.128Z,-2.20
2023-02-22T17:31:00.710Z,-2.30
2023-02-22T17:33:34.207Z,-2.40
2023-02-22T17:36:04.150Z,-2.40
2023-02-22T17:38:31.673Z,-2.30
2023-02-22T17:41:00.727Z,-2.50
2023-02-22T17:43:28.475Z,-2.50
2023-02-22T17:45:56.346Z,-2.50
2023-02-22T17:48:24.514Z,-2.40
2023-02-22T17:50:53.440Z,-2.40
2023-02-22T17:53:22.919Z,-2.40
2023-02-22T17:55:50.393Z,-2.40
2023-02-22T17:58:18.499Z,-2.40
2023-02-22T18:00:49.044Z,-2.50
2023-02-22T18:03:26.104Z,-2.50
2023-02-22T18:05:57.848Z,-2.70
2023-02-22T18:08:27.353Z,-2.80
2023-02-22T18:10:58.300Z,-2.80
2023-02-22T18:13:28.223Z,-2.90
2023-02-22T18:16:00.429Z,-2.90
2023-02-22T18:18:28.506Z,-2.90
2023-02-22T18:21:00.180Z,-2.80
2023-02-22T18:23:30.159Z,-2.70
2023-02-22T18:26:10.043Z,-2.80
2023-02-22T18:28:39.435Z,-2.90
2023-02-22T18:31:08.785Z,-2.80
2023-02-22T18:33:36.193Z,-2.80
2023-02-22T18:36:03.678Z,-2.90
2023-02-22T18:38:30.870Z,-2.80
2023-02-22T18:41:00.703Z,-2.80
2023-02-22T18:43:29.304Z,-2.90
2023-02-22T18:46:12.886Z,-2.80
2023-02-22T18:48:40.957Z,-2.90
2023-02-22T18:51:11.501Z,-2.80
2023-02-22T18:53:41.239Z,-2.80
2023-02-22T18:56:13.142Z,-2.90
2023-02-22T18:58:43.617Z,-3.00
2023-02-22T19:01:16.849Z,-2.90
2023-02-22T19:03:44.551Z,-2.90
2023-02-22T19:06:12.057Z,-2.90
2023-02-22T19:08:41.507Z,-2.90
2023-02-22T19:11:11.914Z,-2.80
2023-02-22T19:13:39.086Z,-2.80
2023-02-22T19:16:07.626Z,-2.80
2023-02-22T19:18:35.257Z,-2.80
2023-02-22T19:21:08.831Z,-2.80
2023-02-22T19:23:45.696Z,-2.90
2023-02-22T19:26:21.347Z,-2.90
2023-02-22T19:28:49.196Z,-3.00
2023-02-22T19:31:19.818Z,-2.90
2023-02-22T19:33:51.413Z,-2.70
2023-02-22T19:36:20.604Z,-2.80
2023-02-22T19:38:47.966Z,-2.90
2023-02-22T19:41:22.091Z,-2.80
2023-02-22T19:43:51.879Z,-2.80
2023-02-22T19:46:21.527Z,-2.80
2023-02-22T19:48:51.198Z,-2.80
2023-02-22T19:51:20.680Z,-2.80
2023-02-22T19:53:48.333Z,-2.70
2023-02-22T19:56:20.497Z,-2.80
2023-02-22T19:58:50.318Z,-2.80
2023-02-22T20:01:23.298Z,-2.80
2023-02-22T20:03:54.894Z,-2.90
2023-02-22T20:06:28.277Z,-2.80
2023-02-22T20:08:58.926Z,-2.80
2023-02-22T20:11:27.216Z,-2.80
2023-02-22T20:13:58.150Z,-2.90
2023-02-22T20:16:25.377Z,-2.80
2023-02-22T20:18:54.607Z,-2.80
2023-02-22T20:21:31.479Z,-2.80
2023-02-22T20:24:00.608Z,-2.80
2023-02-22T20:26:29.906Z,-2.70
2023-02-22T20:28:58.231Z,-2.60
2023-02-22T20:31:26.477Z,-2.60
2023-02-22T20:33:55.896Z,-2.60
2023-02-22T20:36:24.304Z,-2.60
2023-02-22T20:38:56.127Z,-2.50
2023-02-22T20:41:29.321Z,-2.60
2023-02-22T20:43:57.298Z,-2.70
2023-02-22T20:46:26.697Z,-2.60
2023-02-22T20:48:59.014Z,-2.60
2023-02-22T20:51:27.811Z,-2.60
2023-02-22T20:53:56.783Z,-2.60
2023-02-22T20:56:24.558Z,-2.60
2023-02-22T20:58:51.801Z,-2.60
2023-02-22T21:01:22.752Z,-2.60
2023-02-22T21:03:50.542Z,-2.70
2023-02-22T21:06:21.675Z,-2.60
2023-02-22T21:08:55.466Z,-2.70
2023-02-22T21:11:24.631Z,-2.60
2023-02-22T21:13:52.746Z,-2.70
2023-02-22T21:16:23.601Z,-2.70
2023-02-22T21:18:52.852Z,-2.60
2023-02-22T21:21:21.171Z,-2.60
2023-02-22T21:23:51.254Z,-2.60
2023-02-22T21:26:23.691Z,-2.70
2023-02-22T21:28:55.651Z,-2.70
2023-02-22T21:31:25.370Z,-2.70
2023-02-22T21:33:55.545Z,-2.60
2023-02-22T21:36:26.977Z,-2.60
2023-02-22T21:39:00.144Z,-2.50
2023-02-22T21:41:31.489Z,-2.50
2023-02-22T21:44:00.056Z,-2.40
2023-02-22T21:46:29.412Z,-2.50
2023-02-22T21:48:59.123Z,-2.50
2023-02-22T21:51:32.714Z,-2.50
2023-02-22T21:54:06.498Z,-2.60
2023-02-22T21:56:40.133Z,-2.50
2023-02-22T21:59:12.546Z,-2.50
2023-02-22T22:01:47.640Z,-2.60
2023-02-22T22:04:20.184Z,-2.50
2023-02-22T22:06:49.808Z,-2.50
2023-02-22T22:09:20.789Z,-2.50
2023-02-22T22:11:51.253Z,-2.60
2023-02-22T22:14:20.729Z,-2.60
2023-02-22T22:16:50.187Z,-2.60
2023-02-22T22:19:18.108Z,-2.60
2023-02-22T22:21:47.043Z,-2.50
2023-02-22T22:24:14.626Z,-2.50
2023-02-22T22:26:44.084Z,-2.50
2023-02-22T22:29:11.634Z,-2.50
2023-02-22T22:31:38.901Z,-2.40
2023-02-22T22:34:06.570Z,-2.50
2023-02-22T22:36:34.996Z,-2.40
2023-02-22T22:39:10.864Z,-2.50
2023-02-22T22:41:45.061Z,-2.60
2023-02-22T22:44:15.553Z,-2.70
2023-02-22T22:46:43.809Z,-2.70
2023-02-22T22:49:13.721Z,-2.60
2023-02-22T22:51:41.598Z,-2.60
2023-02-22T22:54:10.542Z,-2.50
2023-02-22T22:56:38.803Z,-2.50
2023-02-22T22:59:08.473Z,-2.50
2023-02-22T23:01:44.711Z,-2.50
2023-02-22T23:04:16.986Z,-2.40
2023-02-22T23:06:52.438Z,-2.50
2023-02-22T23:09:24.921Z,-2.60
2023-02-22T23:11:55.715Z,-2.50
2023-02-22T23:14:25.646Z,-2.50
2023-02-22T23:17:00.283Z,-2.40
2023-02-22T23:19:27.758Z,-2.50
2023-02-22T23:21:56.194Z,-2.40
2023-02-22T23:24:27.439Z,-2.40
2023-02-22T23:26:59.975Z,-2.30
2023-02-22T23:29:30.064Z,-2.30
2023-02-22T23:31:58.837Z,-2.40
2023-02-22T23:34:29.168Z,-2.30
2023-02-22T23:36:56.658Z,-2.40
2023-02-22T23:39:24.639Z,-2.40
2023-02-22T23:41:53.737Z,-2.30
2023-02-22T23:44:23.245Z,-2.30
2023-02-22T23:46:55.905Z,-2.40
2023-02-22T23:49:28.027Z,-2.40
2023-02-22T23:51:55.814Z,-2.40
2023-02-22T23:54:25.766Z,-2.40
2023-02-22T23:57:02.846Z,-2.30
2023-02-22T23:59:31.450Z,-2.30
